Time;durP1;ratioP1;P1;durP2;ratioP2;P2;SDS_P1;SDS_P2;PMS_P1;PMS_P2;Temp;Humidity;BMP_temperature;BMP_pressure;BME280_temperature;BME280_humidity;BME280_pressure;Samples;Min_cycle;Max_cycle;Signal;HPM_P1;HPM_P2
2021/01/29 00:00:13;;;;;;;3.60;1.08;;;;;;;11.04;77.05;96010.25;4860208;29;20036;-80
2021/01/29 00:02:39;;;;;;;2.85;1.50;;;;;;;11.17;76.60;96006.22;4861149;29;20053;-79
2021/01/29 00:05:06;;;;;;;3.92;0.95;;;;;;;11.08;77.06;95997.44;4861944;29;20051;-79
2021/01/29 00:07:32;;;;;;;4.68;1.20;;;;;;;11.11;76.65;95994.31;4872776;29;20451;-80
2021/01/29 00:09:58;;;;;;;3.40;1.30;;;;;;;11.04;77.24;95997.22;4881237;29;20124;-80
2021/01/29 00:12:24;;;;;;;4.15;1.38;;;;;;;11.05;77.24;95998.78;4876804;29;20556;-80
2021/01/29 00:14:50;;;;;;;4.32;1.08;;;;;;;11.02;76.97;95988.16;4871659;29;20041;-79
2021/01/29 00:17:16;;;;;;;4.03;1.50;;;;;;;11.04;77.01;95981.59;4860737;29;20109;-80
2021/01/29 00:19:42;;;;;;;3.88;1.90;;;;;;;10.99;77.27;95967.88;4873237;29;20036;-80
2021/01/29 00:22:09;;;;;;;4.28;1.23;;;;;;;11.03;77.64;95966.25;4877328;29;20752;-80
2021/01/29 00:24:34;;;;;;;2.35;1.55;;;;;;;11.02;77.12;95962.88;4875822;29;20032;-79
2021/01/29 00:27:00;;;;;;;2.47;1.85;;;;;;;11.04;77.09;95960.75;4877748;29;20373;-79
2021/01/29 00:29:26;;;;;;;2.17;1.30;;;;;;;11.07;77.76;95956.84;4876644;29;20105;-80
2021/01/29 00:31:51;;;;;;;4.38;1.20;;;;;;;11.06;77.23;95944.88;4892888;29;20128;-80
2021/01/29 00:34:17;;;;;;;3.25;1.63;;;;;;;11.06;77.33;95940.41;4877708;29;20068;-79
2021/01/29 00:36:43;;;;;;;6.65;1.70;;;;;;;11.12;77.11;95937.75;4893974;29;20038;-80
2021/01/29 00:39:10;;;;;;;2.70;1.25;;;;;;;11.03;77.46;95933.16;4862017;29;20032;-80
2021/01/29 00:41:36;;;;;;;2.13;1.08;;;;;;;11.11;77.38;95931.78;4861006;29;20089;-79
2021/01/29 00:44:02;;;;;;;2.72;1.20;;;;;;;11.11;77.33;95913.53;4894321;29;20076;-79
2021/01/29 00:46:31;;;;;;;2.00;0.90;;;;;;;11.11;77.63;95918.00;4893099;29;20044;-79
2021/01/29 00:48:56;;;;;;;3.10;1.00;;;;;;;11.09;77.37;95918.28;4877301;29;20369;-79
2021/01/29 00:51:25;;;;;;;1.23;0.82;;;;;;;10.93;78.11;95912.44;4875908;29;20028;-78
2021/01/29 00:53:50;;;;;;;0.80;0.55;;;;;;;10.98;78.20;95906.41;4861650;29;20032;-79
2021/01/29 00:56:16;;;;;;;1.17;0.60;;;;;;;11.10;77.91;95903.41;4888371;29;20043;-79
2021/01/29 00:58:42;;;;;;;1.73;0.60;;;;;;;11.11;77.55;95891.94;4892266;29;20471;-79
2021/01/29 01:01:08;;;;;;;3.17;0.63;;;;;;;11.11;77.59;95878.91;4870992;29;20041;-79
2021/01/29 01:03:34;;;;;;;0.80;0.80;;;;;;;10.99;78.04;95874.88;4872998;29;20056;-79
2021/01/29 01:05:59;;;;;;;1.10;0.40;;;;;;;10.89;78.64;95875.00;4862001;29;20044;-79
2021/01/29 01:08:26;;;;;;;0.70;0.70;;;;;;;11.07;77.70;95873.50;4893546;29;20661;-79
2021/01/29 01:10:52;;;;;;;1.13;0.30;;;;;;;11.00;78.00;95863.41;4876392;29;20044;-79
2021/01/29 01:13:17;;;;;;;0.65;0.20;;;;;;;11.16;77.52;95861.38;4892856;29;20101;-79
2021/01/29 01:15:42;;;;;;;0.30;0.30;;;;;;;11.00;78.59;95841.78;4875795;29;20104;-80
2021/01/29 01:18:08;;;;;;;0.50;0.20;;;;;;;11.02;78.44;95848.28;4876206;29;20403;-79
2021/01/29 01:20:34;;;;;;;0.30;0.30;;;;;;;11.11;78.03;95842.44;4888072;29;20032;-80
2021/01/29 01:23:00;;;;;;;0.20;0.10;;;;;;;11.10;78.19;95851.31;4876974;29;20043;-79
2021/01/29 01:25:26;;;;;;;0.38;0.10;;;;;;;11.11;78.36;95845.81;4892180;29;20041;-79
2021/01/29 01:27:53;;;;;;;0.22;0.20;;;;;;;11.14;78.26;95827.03;4892801;29;20039;-79
2021/01/29 01:30:22;;;;;;;0.20;0.20;;;;;;;11.14;77.97;95821.03;4875813;29;20399;-80
2021/01/29 01:32:48;;;;;;;0.30;0.20;;;;;;;11.13;78.27;95814.28;4892330;29;20351;-79
2021/01/29 01:35:17;;;;;;;0.30;0.30;;;;;;;11.13;78.54;95819.50;4859607;29;20507;-80
2021/01/29 01:37:43;;;;;;;1.55;0.30;;;;;;;11.09;78.60;95813.28;4892097;29;20028;-79
2021/01/29 01:40:11;;;;;;;0.28;0.20;;;;;;;11.08;78.13;95809.91;4859681;29;20044;-79
2021/01/29 01:42:37;;;;;;;0.32;0.20;;;;;;;11.12;78.43;95800.50;4878814;29;20036;-79
2021/01/29 01:45:26;;;;;;;0.40;0.30;;;;;;;11.01;78.42;95794.63;4895918;29;20100;-79
2021/01/29 01:47:52;;;;;;;0.47;0.30;;;;;;;11.19;78.35;95789.69;4896968;29;20045;-79
2021/01/29 01:50:38;;;;;;;1.85;0.30;;;;;;;10.83;78.73;95772.72;4879072;29;20348;-79
2021/01/29 01:53:11;;;;;;;0.30;0.20;;;;;;;11.13;78.32;95772.59;4895430;29;20111;-80
2021/01/29 01:55:37;;;;;;;0.30;0.30;;;;;;;11.18;78.20;95756.91;4895220;29;20032;-79
2021/01/29 01:58:04;;;;;;;1.20;0.30;;;;;;;11.22;78.02;95750.84;4861621;29;20481;-80
2021/01/29 02:00:31;;;;;;;0.20;0.20;;;;;;;11.28;77.88;95748.19;4891518;29;20036;-79
2021/01/29 02:03:13;;;;;;;0.20;0.20;;;;;;;11.07;78.35;95738.06;4873880;29;20060;-80
2021/01/29 02:05:39;;;;;;;0.40;0.28;;;;;;;11.08;78.93;95736.22;4856418;29;20060;-79
2021/01/29 02:08:08;;;;;;;0.40;0.30;;;;;;;11.14;78.75;95732.47;4859654;29;20037;-79
2021/01/29 02:10:34;;;;;;;0.32;0.32;;;;;;;11.20;78.69;95728.72;4874363;29;20037;-80
2021/01/29 02:13:02;;;;;;;1.42;0.30;;;;;;;11.02;79.12;95715.44;4876109;29;20124;-79
2021/01/29 02:15:30;;;;;;;0.50;0.47;;;;;;;10.99;79.32;95710.78;4862257;29;20101;-80
2021/01/29 02:18:15;;;;;;;0.90;0.32;;;;;;;10.97;78.97;95702.50;4857375;29;20080;-80
2021/01/29 02:21:20;;;;;;;0.65;0.52;;;;;;;10.79;79.94;95695.47;4874404;29;20025;-81
2021/01/29 02:24:08;;;;;;;0.55;0.47;;;;;;;11.20;78.74;95702.69;4882320;29;20088;-79
2021/01/29 02:27:01;;;;;;;1.20;0.68;;;;;;;10.79;80.01;95683.22;4870784;29;20495;-81
2021/01/29 02:29:39;;;;;;;1.45;0.70;;;;;;;11.08;78.94;95687.50;4860072;29;20283;-79
2021/01/29 02:32:28;;;;;;;1.05;0.60;;;;;;;11.02;79.38;95688.63;4876280;29;20044;-79
2021/01/29 02:35:14;;;;;;;1.83;0.75;;;;;;;10.84;80.02;95674.56;4870997;29;20795;-79
2021/01/29 02:38:02;;;;;;;0.98;0.75;;;;;;;11.26;78.82;95667.69;4865272;29;20279;-79
2021/01/29 02:40:39;;;;;;;1.02;0.93;;;;;;;11.16;78.96;95670.44;4879524;29;20056;-80
2021/01/29 02:43:37;;;;;;;1.33;0.90;;;;;;;11.21;78.98;95654.75;4859687;29;20036;-79
2021/01/29 02:46:06;;;;;;;2.40;0.60;;;;;;;11.17;78.89;95664.16;4874486;29;20037;-79
2021/01/29 02:48:47;;;;;;;1.67;1.00;;;;;;;10.91;79.70;95641.13;4859351;29;20051;-79
2021/01/29 02:51:34;;;;;;;1.10;0.98;;;;;;;11.04;79.47;95650.81;4875060;29;20369;-79
2021/01/29 02:54:15;;;;;;;2.33;1.10;;;;;;;10.86;80.48;95625.56;4874590;29;20175;-79
2021/01/29 02:56:51;;;;;;;1.27;1.02;;;;;;;11.04;79.62;95626.63;4869946;29;20071;-80
2021/01/29 02:59:38;;;;;;;1.63;1.17;;;;;;;10.99;80.15;95626.69;4853608;29;20047;-79
2021/01/29 03:02:12;;;;;;;2.47;1.30;;;;;;;11.05;79.41;95623.72;4859264;29;20036;-79
2021/01/29 03:05:07;;;;;;;2.72;1.80;;;;;;;10.89;79.80;95614.59;4857555;29;20132;-80
2021/01/29 03:07:40;;;;;;;3.05;1.67;;;;;;;11.04;79.41;95598.72;4853625;29;20049;-79
2021/01/29 03:10:25;;;;;;;4.80;2.35;;;;;;;10.95;79.95;95584.03;4844955;29;20086;-79
2021/01/29 03:12:57;;;;;;;1.88;1.55;;;;;;;10.54;81.11;95567.25;4869259;29;20025;-79
2021/01/29 03:15:30;;;;;;;3.58;1.58;;;;;;;10.58;81.56;95572.66;4874240;29;20580;-79
2021/01/29 03:18:00;;;;;;;2.10;1.15;;;;;;;10.57;81.76;95569.25;4859120;29;20383;-79
2021/01/29 03:20:33;;;;;;;1.65;1.00;;;;;;;10.37;82.57;95566.97;4867943;29;20113;-82
2021/01/29 03:23:06;;;;;;;0.98;0.93;;;;;;;10.41;81.92;95570.56;4874487;29;20033;-79
2021/01/29 03:25:34;;;;;;;2.25;0.93;;;;;;;10.36;82.68;95563.59;4873789;29;20029;-80
2021/01/29 03:28:06;;;;;;;1.95;0.70;;;;;;;10.30;82.92;95551.69;4870361;29;20033;-80
2021/01/29 03:30:34;;;;;;;1.73;0.82;;;;;;;10.37;82.77;95548.75;4842839;29;20044;-80
2021/01/29 03:33:01;;;;;;;1.00;0.70;;;;;;;10.43;82.29;95537.97;4873276;29;20236;-81
2021/01/29 03:35:30;;;;;;;1.42;0.70;;;;;;;10.39;82.34;95520.63;4856115;29;20455;-80
2021/01/29 03:38:36;;;;;;;1.20;0.70;;;;;;;10.05;83.12;95519.75;4874197;29;20037;-80
2021/01/29 03:41:01;;;;;;;0.75;0.60;;;;;;;10.20;83.30;95510.97;4862874;29;20431;-81
2021/01/29 03:43:41;;;;;;;0.95;0.60;;;;;;;10.13;82.84;95505.38;4875036;29;20374;-80
2021/01/29 03:46:12;;;;;;;1.25;0.63;;;;;;;10.38;81.87;95493.06;4859270;29;20099;-80
2021/01/29 03:48:48;;;;;;;0.65;0.50;;;;;;;10.22;82.37;95482.84;4865823;29;20067;-79
2021/01/29 03:51:40;;;;;;;1.52;0.30;;;;;;;10.24;82.10;95482.56;4874360;29;20036;-81
2021/01/29 03:54:21;;;;;;;1.73;0.70;;;;;;;10.21;82.27;95481.31;4855654;29;20060;-79
2021/01/29 03:57:17;;;;;;;1.20;0.40;;;;;;;10.04;83.11;95468.03;4858740;29;20037;-80
2021/01/29 04:00:20;;;;;;;0.52;0.40;;;;;;;10.13;82.69;95469.72;4852917;29;20061;-80
2021/01/29 04:03:00;;;;;;;0.98;0.28;;;;;;;10.25;82.00;95463.31;4846896;29;20041;-80
2021/01/29 04:05:36;;;;;;;0.68;0.40;;;;;;;10.34;81.62;95455.66;4874382;29;20770;-80
2021/01/29 04:08:06;;;;;;;1.15;0.40;;;;;;;10.28;82.49;95453.13;4859466;29;20047;-81
2021/01/29 04:10:34;;;;;;;0.50;0.40;;;;;;;10.18;82.88;95427.28;4844388;29;20036;-81
2021/01/29 04:13:40;;;;;;;1.35;0.20;;;;;;;10.04;83.19;95436.84;4856562;29;20423;-82
2021/01/29 04:16:07;;;;;;;0.60;0.20;;;;;;;10.16;82.93;95429.38;4821122;29;20042;-82
2021/01/29 04:18:37;;;;;;;0.57;0.20;;;;;;;10.12;82.97;95412.78;4818238;29;20038;-82
2021/01/29 04:21:07;;;;;;;0.50;0.20;;;;;;;10.19;82.92;95418.41;4835214;29;20760;-80
2021/01/29 04:23:37;;;;;;;0.63;0.30;;;;;;;10.26;82.62;95425.84;4811932;29;20050;-81
2021/01/29 04:26:07;;;;;;;0.32;0.15;;;;;;;10.08;83.06;95412.59;4835385;29;20133;-80
2021/01/29 04:28:37;;;;;;;0.28;0.10;;;;;;;10.20;82.85;95408.78;4816491;29;20042;-80
2021/01/29 04:31:04;;;;;;;0.30;0.20;;;;;;;10.26;82.83;95405.81;4820835;29;20037;-81
2021/01/29 04:33:39;;;;;;;0.70;0.20;;;;;;;10.18;83.15;95395.28;4833635;29;20049;-79
2021/01/29 04:36:05;;;;;;;0.30;0.30;;;;;;;10.11;83.70;95380.06;4835743;29;20030;-80
2021/01/29 04:38:34;;;;;;;0.47;0.20;;;;;;;10.18;83.12;95406.47;4815212;29;20279;-79
2021/01/29 04:41:11;;;;;;;0.50;0.15;;;;;;;10.11;83.73;95395.66;4830107;29;20034;-80
2021/01/29 04:43:50;;;;;;;0.10;0.10;;;;;;;10.03;83.38;95383.31;4826638;29;20109;-83
2021/01/29 04:46:47;;;;;;;0.20;0.20;;;;;;;9.95;83.91;95369.13;4820870;29;20054;-80
2021/01/29 04:49:24;;;;;;;0.65;0.30;;;;;;;10.18;83.20;95349.25;4824341;29;20142;-80
2021/01/29 04:52:01;;;;;;;0.93;0.20;;;;;;;10.07;83.60;95359.03;4872515;29;20033;-78
2021/01/29 04:54:40;;;;;;;0.75;0.20;;;;;;;10.08;83.15;95336.41;4872437;29;20116;-79
2021/01/29 04:57:17;;;;;;;0.13;0.13;;;;;;;10.20;82.98;95326.31;4860072;29;20079;-80
2021/01/29 05:00:10;;;;;;;0.10;0.10;;;;;;;10.08;82.99;95313.78;4867906;29;20497;-79
2021/01/29 05:03:00;;;;;;;0.40;0.40;;;;;;;10.17;83.05;95313.13;4858920;29;20048;-79
2021/01/29 05:05:46;;;;;;;0.70;0.45;;;;;;;9.87;84.08;95308.16;4855906;29;20061;-82
2021/01/29 05:08:19;;;;;;;0.10;0.10;;;;;;;10.24;83.10;95306.47;4875282;29;20049;-79
2021/01/29 05:11:22;;;;;;;0.20;0.20;;;;;;;10.08;83.81;95307.81;4875245;29;20569;-81
2021/01/29 05:14:30;;;;;;;0.17;0.17;;;;;;;10.06;84.29;95292.50;4874298;29;20029;-80
2021/01/29 05:17:19;;;;;;;0.52;0.30;;;;;;;10.09;83.83;95293.75;4858633;29;20032;-79
2021/01/29 05:20:03;;;;;;;0.17;0.10;;;;;;;10.14;83.90;95291.06;4858269;29;20715;-83
2021/01/29 05:22:57;;;;;;;0.20;0.10;;;;;;;10.10;84.16;95284.91;4875366;29;20060;-80
2021/01/29 05:25:40;;;;;;;0.10;0.10;;;;;;;10.17;83.15;95281.91;4861825;29;20128;-82
2021/01/29 05:28:31;;;;;;;0.20;0.20;;;;;;;10.27;83.40;95294.75;4874403;29;20043;-79
2021/01/29 05:31:22;;;;;;;0.50;0.13;;;;;;;10.35;82.48;95301.91;4881403;29;20507;-83
2021/01/29 05:34:05;;;;;;;0.10;0.10;;;;;;;10.45;81.23;95301.72;4874924;29;20404;-82
2021/01/29 05:37:06;;;;;;;0.20;0.10;;;;;;;10.45;80.28;95319.13;4876247;29;20040;-82
2021/01/29 05:39:52;;;;;;;0.13;0.10;;;;;;;10.44;79.95;95335.81;4870699;29;20033;-80
2021/01/29 05:42:53;;;;;;;0.20;0.13;;;;;;;10.58;78.44;95328.03;4841829;29;20037;-81
2021/01/29 05:45:39;;;;;;;0.30;0.10;;;;;;;10.19;78.03;95342.97;4814187;29;20090;-81
2021/01/29 05:48:32;;;;;;;0.20;0.20;;;;;;;10.32;77.69;95338.13;4865311;29;20049;-81
2021/01/29 05:51:11;;;;;;;0.40;0.17;;;;;;;9.96;77.41;95339.47;4875001;29;20044;-81
2021/01/29 05:53:54;;;;;;;0.00;0.00;;;;;;;9.91;76.44;95365.56;4841529;29;20040;-83
2021/01/29 05:56:44;;;;;;;0.15;0.10;;;;;;;9.61;77.01;95377.16;4873822;29;20493;-81
2021/01/29 05:59:34;;;;;;;0.10;0.10;;;;;;;9.46;77.66;95376.34;4874292;29;20115;-81
2021/01/29 06:02:25;;;;;;;0.10;0.10;;;;;;;9.73;76.94;95385.28;4868235;29;20347;-82
2021/01/29 06:05:28;;;;;;;0.10;0.10;;;;;;;9.66;76.69;95393.44;4872397;29;20061;-81
2021/01/29 06:08:25;;;;;;;1.20;0.20;;;;;;;9.82;76.52;95394.03;4853614;29;20045;-81
2021/01/29 06:11:00;;;;;;;0.30;0.15;;;;;;;9.54;75.92;95393.91;4873445;29;20051;-80
2021/01/29 06:13:42;;;;;;;0.73;0.10;;;;;;;9.33;77.35;95395.22;4853391;29;20038;-82
2021/01/29 06:16:31;;;;;;;0.50;0.13;;;;;;;9.42;76.71;95413.53;4866462;29;20572;-81
2021/01/29 06:19:26;;;;;;;0.68;0.20;;;;;;;9.48;76.65;95422.81;4871954;29;20128;-82
2021/01/29 06:22:14;;;;;;;0.38;0.35;;;;;;;9.25;76.53;95419.19;4867660;29;20442;-82
2021/01/29 06:24:55;;;;;;;0.65;0.10;;;;;;;9.14;78.00;95416.72;4871909;29;20061;-81
2021/01/29 06:27:47;;;;;;;0.52;0.20;;;;;;;9.36;77.02;95424.00;4871109;29;20124;-81
2021/01/29 06:30:44;;;;;;;0.32;0.10;;;;;;;9.27;76.44;95414.50;4875424;29;20044;-84
2021/01/29 06:33:25;;;;;;;0.10;0.10;;;;;;;9.51;76.10;95412.63;4876357;29;20084;-84
2021/01/29 06:36:15;;;;;;;0.40;0.20;;;;;;;9.45;77.76;95403.34;4878491;29;20172;-82
2021/01/29 06:38:55;;;;;;;1.38;0.13;;;;;;;9.40;77.10;95413.06;4880087;29;20384;-80
2021/01/29 06:41:42;;;;;;;0.30;0.15;;;;;;;9.06;78.30;95417.34;4858044;29;20030;-81
2021/01/29 06:44:38;;;;;;;0.25;0.10;;;;;;;9.26;77.34;95418.16;4878539;29;20047;-80
2021/01/29 06:47:12;;;;;;;0.20;0.20;;;;;;;9.38;76.91;95416.69;4857914;29;20049;-80
2021/01/29 06:49:57;;;;;;;1.33;0.15;;;;;;;9.36;77.32;95412.84;4876601;29;20536;-81
2021/01/29 06:52:52;;;;;;;1.50;0.10;;;;;;;9.31;77.30;95416.25;4871014;29;20590;-81
2021/01/29 06:55:35;;;;;;;0.10;0.05;;;;;;;9.39;77.23;95422.69;4828857;29;20032;-81
2021/01/29 06:58:40;;;;;;;0.20;0.10;;;;;;;9.36;78.04;95428.44;4873638;29;20048;-81
2021/01/29 07:01:16;;;;;;;0.20;0.10;;;;;;;9.69;77.68;95426.69;4868297;29;20072;-79
2021/01/29 07:03:48;;;;;;;0.82;0.10;;;;;;;9.73;78.07;95437.28;4857466;29;20087;-80
2021/01/29 07:06:32;;;;;;;0.60;0.22;;;;;;;9.65;77.89;95441.28;4875489;29;20044;-80
2021/01/29 07:09:08;;;;;;;0.15;0.13;;;;;;;9.67;78.18;95433.22;4859347;29;20504;-80
2021/01/29 07:12:18;;;;;;;0.55;0.30;;;;;;;9.35;79.06;95435.41;4876872;29;20116;-84
2021/01/29 07:14:47;;;;;;;1.05;0.20;;;;;;;9.87;78.28;95438.13;4852043;29;20064;-81
2021/01/29 07:17:43;;;;;;;0.13;0.10;;;;;;;9.59;78.59;95429.41;4859991;29;20037;-80
2021/01/29 07:20:18;;;;;;;1.35;0.30;;;;;;;9.68;78.70;95450.34;4864325;29;20072;-81
2021/01/29 07:23:20;;;;;;;0.95;0.45;;;;;;;9.36;79.85;95447.38;4863706;29;20504;-80
2021/01/29 07:25:58;;;;;;;0.40;0.20;;;;;;;9.51;79.41;95441.22;4854046;29;20041;-82
2021/01/29 07:28:54;;;;;;;0.52;0.52;;;;;;;9.57;79.41;95450.47;4875073;29;20072;-81
2021/01/29 07:31:22;;;;;;;1.80;0.35;;;;;;;9.80;78.76;95449.91;4863101;29;20517;-81
2021/01/29 07:33:59;;;;;;;1.13;0.20;;;;;;;9.53;79.29;95459.91;4862699;29;20029;-80
2021/01/29 07:36:44;;;;;;;1.52;0.50;;;;;;;9.37;78.97;95458.53;4853909;29;20039;-82
2021/01/29 07:40:04;;;;;;;0.82;0.40;;;;;;;9.50;78.51;95459.69;4855993;29;20029;-82
2021/01/29 07:42:52;;;;;;;1.27;0.50;;;;;;;9.66;78.77;95468.81;4797454;29;20043;-80
2021/01/29 07:45:38;;;;;;;0.88;0.50;;;;;;;9.43;78.92;95462.63;4779441;29;20087;-80
2021/01/29 07:48:35;;;;;;;1.02;0.30;;;;;;;9.54;78.75;95471.84;4783549;29;20038;-80
2021/01/29 07:51:16;;;;;;;1.00;0.57;;;;;;;9.38;78.56;95453.06;4801053;29;20514;-83
2021/01/29 07:54:06;;;;;;;0.95;0.30;;;;;;;9.59;78.44;95467.63;4781306;29;20050;-82
2021/01/29 07:56:38;;;;;;;0.93;0.30;;;;;;;9.54;78.09;95477.03;4780218;29;20031;-82
2021/01/29 07:59:24;;;;;;;0.50;0.28;;;;;;;9.71;78.03;95473.94;4791569;29;20434;-81
2021/01/29 08:01:53;;;;;;;1.02;0.40;;;;;;;9.87;77.76;95479.72;4780741;29;20520;-82
2021/01/29 08:05:15;;;;;;;1.77;0.50;;;;;;;9.63;78.46;95491.97;4796308;29;20252;-82
2021/01/29 08:07:46;;;;;;;3.60;0.73;;;;;;;9.46;78.19;95490.66;4761927;30;20123;-82
2021/01/29 08:10:28;;;;;;;2.15;0.40;;;;;;;9.54;77.75;95487.44;4782207;29;20042;-83
2021/01/29 08:13:32;;;;;;;1.55;0.30;;;;;;;9.38;76.72;95483.47;4779671;29;20047;-84
2021/01/29 08:16:00;;;;;;;1.40;0.55;;;;;;;9.97;75.94;95504.03;4797667;29;20213;-79
2021/01/29 08:18:42;;;;;;;2.70;0.82;;;;;;;9.52;75.64;95502.50;4845065;29;20029;-83
2021/01/29 08:21:38;;;;;;;9.75;4.13;;;;;;;9.65;75.15;95505.50;4859302;29;20037;-83
2021/01/29 08:24:40;;;;;;;1.25;0.40;;;;;;;9.65;75.33;95521.09;4856271;29;20040;-81
2021/01/29 08:27:31;;;;;;;1.50;0.68;;;;;;;9.81;75.66;95516.47;4873618;29;20451;-82
2021/01/29 08:30:21;;;;;;;2.33;1.20;;;;;;;9.73;74.73;95525.63;4873770;29;20540;-81
2021/01/29 08:33:11;;;;;;;3.90;1.20;;;;;;;9.73;74.58;95523.84;4870692;29;20035;-82
2021/01/29 08:36:05;;;;;;;3.20;0.50;;;;;;;9.61;73.91;95517.47;4839146;29;20033;-83
2021/01/29 08:39:01;;;;;;;1.98;0.40;;;;;;;9.80;73.94;95530.50;4864262;29;20568;-81
2021/01/29 08:41:55;;;;;;;3.30;1.10;;;;;;;9.79;74.11;95534.16;4875658;29;20395;-83
2021/01/29 08:44:30;;;;;;;2.38;0.60;;;;;;;9.96;73.16;95557.84;4871953;29;20032;-85
2021/01/29 08:47:35;;;;;;;3.30;0.50;;;;;;;9.78;72.69;95559.38;4844769;29;20109;-82
2021/01/29 08:50:17;;;;;;;4.07;0.68;;;;;;;9.47;71.39;95554.53;4878042;29;20124;-82
2021/01/29 08:53:15;;;;;;;2.90;0.70;;;;;;;9.90;72.02;95551.97;4857229;29;20582;-80
2021/01/29 08:55:44;;;;;;;3.78;0.88;;;;;;;10.18;72.05;95559.13;4824615;29;20072;-81
2021/01/29 08:59:02;;;;;;;3.88;0.88;;;;;;;9.93;72.24;95556.56;4865466;29;20037;-81
2021/01/29 09:01:52;;;;;;;3.03;1.02;;;;;;;9.80;72.66;95578.06;4799205;29;20045;-81
2021/01/29 09:04:26;;;;;;;3.65;0.80;;;;;;;9.88;72.67;95564.44;4783903;29;20072;-84
2021/01/29 09:06:54;;;;;;;3.10;0.70;;;;;;;10.02;71.07;95563.75;4830131;29;20273;-81
2021/01/29 09:09:24;;;;;;;5.05;0.90;;;;;;;10.14;70.83;95571.91;4798984;29;20134;-83
2021/01/29 09:11:57;;;;;;;4.03;0.90;;;;;;;9.99;70.96;95579.91;4798638;29;20084;-81
2021/01/29 09:14:51;;;;;;;4.47;0.95;;;;;;;9.79;72.66;95570.56;4813928;29;20073;-82
2021/01/29 09:17:24;;;;;;;5.53;1.20;;;;;;;10.04;72.17;95579.84;4829824;29;20060;-81
2021/01/29 09:19:59;;;;;;;3.15;0.90;;;;;;;10.10;70.49;95581.34;4829098;29;20675;-81
2021/01/29 09:22:31;;;;;;;4.93;0.98;;;;;;;10.28;69.92;95591.00;4815094;29;20082;-82
2021/01/29 09:25:04;;;;;;;5.30;0.90;;;;;;;10.05;69.26;95592.56;4813508;29;20049;-82
2021/01/29 09:27:46;;;;;;;4.63;1.63;;;;;;;9.80;69.88;95603.28;4803699;29;20102;-80
2021/01/29 09:30:35;;;;;;;6.07;1.48;;;;;;;9.60;70.87;95599.09;4813887;29;20034;-82
2021/01/29 09:33:16;;;;;;;4.05;0.80;;;;;;;9.56;71.62;95604.84;4799248;29;20501;-82
2021/01/29 09:35:53;;;;;;;4.35;0.93;;;;;;;10.04;68.50;95596.25;4844322;29;20113;-82
2021/01/29 09:38:23;;;;;;;5.75;1.25;;;;;;;10.08;67.38;95597.22;4870475;29;20036;-81
2021/01/29 09:40:54;;;;;;;3.03;0.47;;;;;;;10.36;67.67;95607.03;4855862;29;20039;-81
2021/01/29 09:43:24;;;;;;;5.65;0.82;;;;;;;10.38;68.09;95615.34;4854939;29;20380;-81
2021/01/29 09:45:54;;;;;;;3.75;0.77;;;;;;;10.23;67.19;95609.25;4840547;29;20400;-82
2021/01/29 09:48:24;;;;;;;4.30;0.93;;;;;;;10.57;66.86;95610.13;4853204;29;20117;-81
2021/01/29 09:51:07;;;;;;;4.25;1.15;;;;;;;10.30;66.44;95609.69;4855928;29;20033;-82
2021/01/29 09:53:41;;;;;;;4.63;0.85;;;;;;;10.17;66.85;95622.59;4853171;29;20086;-82
2021/01/29 09:56:16;;;;;;;5.97;0.80;;;;;;;10.27;67.04;95625.84;4856148;29;20381;-80
2021/01/29 09:59:01;;;;;;;;;;;;;;;10.10;67.72;95623.72;4864280;29;20030;-80
2021/01/29 10:01:35;;;;;;;2.92;0.82;;;;;;;10.12;67.20;95629.41;4877223;29;19916;-80
2021/01/29 10:04:11;;;;;;;2.40;0.88;;;;;;;10.26;68.47;95631.31;4857433;29;20060;-82
2021/01/29 10:06:59;;;;;;;2.88;0.50;;;;;;;10.10;69.85;95633.34;4859382;29;20073;-80
2021/01/29 10:09:34;;;;;;;4.45;0.93;;;;;;;10.08;70.39;95638.06;4854484;29;20100;-80
2021/01/29 10:12:09;;;;;;;4.15;0.80;;;;;;;10.01;71.90;95638.41;4859800;29;20025;-83
2021/01/29 10:14:59;;;;;;;3.92;1.00;;;;;;;9.91;71.52;95638.50;4875678;29;20033;-79
2021/01/29 10:17:32;;;;;;;6.18;1.48;;;;;;;9.85;72.19;95644.81;4862821;29;20545;-79
2021/01/29 10:20:03;;;;;;;3.83;0.70;;;;;;;10.06;71.29;95642.78;4857932;29;20037;-80
2021/01/29 10:23:10;;;;;;;5.90;1.10;;;;;;;10.07;71.11;95641.69;4868747;29;20365;-80
2021/01/29 10:26:00;;;;;;;7.82;0.98;;;;;;;10.07;69.99;95628.69;4866688;29;20037;-80
2021/01/29 10:28:57;;;;;;;5.68;0.80;;;;;;;9.84;70.24;95625.84;4862627;29;20043;-80
2021/01/29 10:31:24;;;;;;;4.78;0.90;;;;;;;9.85;71.66;95643.00;4868976;29;20037;-81
2021/01/29 10:34:01;;;;;;;6.28;1.73;;;;;;;9.81;71.00;95626.41;4858625;29;20412;-80
2021/01/29 10:36:29;;;;;;;4.22;0.90;;;;;;;10.05;69.83;95636.78;4859086;29;20728;-80
2021/01/29 10:39:00;;;;;;;3.45;0.85;;;;;;;10.17;70.59;95649.38;4874105;29;20024;-80
2021/01/29 10:41:38;;;;;;;5.00;0.85;;;;;;;10.20;70.69;95648.84;4842104;29;20129;-79
2021/01/29 10:44:18;;;;;;;7.85;0.80;;;;;;;9.90;69.35;95645.53;4851961;29;20585;-80
2021/01/29 10:46:47;;;;;;;3.92;0.70;;;;;;;10.18;69.38;95645.75;4875298;29;20047;-81
2021/01/29 10:49:24;;;;;;;3.90;0.68;;;;;;;10.13;70.73;95656.97;4874471;29;20047;-81
2021/01/29 10:52:00;;;;;;;4.00;0.90;;;;;;;9.97;70.13;95662.63;4858529;29;20033;-81
2021/01/29 10:54:33;;;;;;;4.53;0.80;;;;;;;9.89;71.58;95664.78;4852951;29;20040;-80
2021/01/29 10:57:10;;;;;;;4.10;0.70;;;;;;;9.76;71.44;95662.84;4856015;29;20040;-80
2021/01/29 10:59:50;;;;;;;2.00;0.55;;;;;;;10.09;70.59;95673.41;4852572;29;20085;-80
2021/01/29 11:02:38;;;;;;;6.65;1.33;;;;;;;10.52;69.85;95667.44;4858813;29;20145;-80
2021/01/29 11:05:32;;;;;;;5.53;0.88;;;;;;;10.54;69.44;95662.72;4833485;29;20148;-80
2021/01/29 11:08:31;;;;;;;5.53;1.45;;;;;;;10.58;67.77;95656.69;4856307;29;20048;-79
2021/01/29 11:11:28;;;;;;;6.10;1.65;;;;;;;10.35;68.96;95663.50;4868469;29;20508;-80
2021/01/29 11:13:54;;;;;;;7.82;1.25;;;;;;;10.85;69.43;95650.84;4850787;29;20057;-79
2021/01/29 11:16:27;;;;;;;3.78;1.20;;;;;;;10.89;68.36;95639.88;4874586;29;20044;-83
2021/01/29 11:19:00;;;;;;;7.68;1.40;;;;;;;10.74;67.61;95670.25;4872727;29;20045;-81
2021/01/29 11:21:49;;;;;;;5.03;0.75;;;;;;;10.72;67.38;95666.41;4858278;29;20044;-82
2021/01/29 11:24:33;;;;;;;6.10;1.77;;;;;;;10.56;67.51;95653.59;4858087;29;20044;-81
2021/01/29 11:27:06;;;;;;;6.65;1.00;;;;;;;10.66;67.59;95666.47;4873488;29;20508;-80
2021/01/29 11:29:40;;;;;;;6.10;1.58;;;;;;;10.69;67.88;95667.72;4842799;29;20037;-80
2021/01/29 11:32:26;;;;;;;7.55;1.15;;;;;;;10.49;69.05;95656.56;4858068;29;20037;-80
2021/01/29 11:35:24;;;;;;;5.63;1.40;;;;;;;10.22;69.40;95670.13;4857156;29;20041;-81
2021/01/29 11:37:55;;;;;;;4.65;1.58;;;;;;;10.43;69.94;95668.06;4858272;29;20102;-79
2021/01/29 11:40:27;;;;;;;10.60;1.88;;;;;;;10.38;70.13;95669.97;4875228;29;20040;-80
2021/01/29 11:42:58;;;;;;;7.95;1.05;;;;;;;10.20;70.95;95677.44;4873281;29;20025;-81
2021/01/29 11:45:27;;;;;;;7.20;1.92;;;;;;;10.08;71.63;95666.66;4857728;29;20037;-80
2021/01/29 11:48:09;;;;;;;5.05;1.02;;;;;;;10.09;71.96;95665.59;4843995;29;20021;-80
2021/01/29 11:50:50;;;;;;;10.05;3.13;;;;;;;9.96;72.95;95645.50;4855023;29;20370;-80
2021/01/29 11:53:34;;;;;;;4.68;1.38;;;;;;;10.07;70.94;95654.69;4857267;29;20021;-81
2021/01/29 11:56:20;;;;;;;9.27;1.75;;;;;;;10.34;72.10;95642.97;4857304;29;20085;-80
2021/01/29 11:59:04;;;;;;;8.63;1.63;;;;;;;10.54;69.74;95641.91;4858291;29;20029;-80
2021/01/29 12:02:08;;;;;;;7.53;1.52;;;;;;;10.89;67.80;95643.25;4856720;29;20524;-81
2021/01/29 12:04:41;;;;;;;3.97;1.30;;;;;;;11.33;66.85;95631.59;4845127;29;20053;-80
2021/01/29 12:07:14;;;;;;;7.07;1.80;;;;;;;10.96;67.98;95625.41;4872653;29;20489;-81
2021/01/29 12:10:15;;;;;;;5.53;1.65;;;;;;;10.99;66.30;95624.84;4841793;29;20422;-80
2021/01/29 12:12:52;;;;;;;8.63;2.03;;;;;;;11.12;65.99;95622.56;4848251;29;20047;-80
2021/01/29 12:15:45;;;;;;;7.10;1.20;;;;;;;11.18;66.26;95624.03;4862672;29;20065;-81
2021/01/29 12:18:11;;;;;;;8.70;1.60;;;;;;;11.27;66.77;95622.31;4846804;29;20052;-80
2021/01/29 12:20:41;;;;;;;7.30;1.65;;;;;;;10.79;66.22;95627.78;4847434;29;20037;-81
2021/01/29 12:23:25;;;;;;;10.18;2.38;;;;;;;11.21;67.42;95639.09;4852840;29;20025;-81
2021/01/29 12:25:54;;;;;;;5.65;0.88;;;;;;;11.01;65.55;95620.13;4873399;29;20388;-81
2021/01/29 12:28:45;;;;;;;4.28;1.25;;;;;;;11.11;66.15;95618.44;4880462;29;20041;-81
2021/01/29 12:31:14;;;;;;;5.68;1.25;;;;;;;10.85;65.87;95624.81;4852617;29;20067;-81
2021/01/29 12:34:10;;;;;;;5.78;1.40;;;;;;;10.78;68.07;95636.63;4871085;29;20576;-80